createdAt,value
2019-01-17T00:00:39.001Z,99155.44
2019-01-17T00:03:46.557Z,99160.19
2019-01-17T00:06:54.812Z,99145.10
2019-01-17T00:09:43.081Z,99149.42
2019-01-17T00:12:32.666Z,99149.85
2019-01-17T00:15:40.619Z,99137.76
2019-01-17T00:18:30.207Z,99143.80
2019-01-17T00:21:28.995Z,99146.80
2019-01-17T00:24:14.768Z,99123.93
2019-01-17T00:26:53.855Z,99119.54
2019-01-17T00:29:33.760Z,99126.88
2019-01-17T00:32:16.719Z,99122.52
2019-01-17T00:35:05.046Z,99118.59
2019-01-17T00:38:03.829Z,99122.09
2019-01-17T00:41:00.036Z,99116.91
2019-01-17T00:43:48.627Z,99116.91
2019-01-17T00:46:47.606Z,99109.95
2019-01-17T00:49:37.505Z,99112.08
2019-01-17T00:52:25.952Z,99102.14
2019-01-17T00:55:15.926Z,99091.38
2019-01-17T00:58:23.518Z,99091.38
2019-01-17T01:01:14.470Z,99091.33
2019-01-17T01:04:22.830Z,99084.86
2019-01-17T01:07:15.262Z,99093.92
2019-01-17T01:10:07.922Z,99086.97
2019-01-17T01:13:09.332Z,99093.88
2019-01-17T01:16:12.932Z,99091.73
2019-01-17T01:19:10.406Z,99094.78
2019-01-17T01:21:58.738Z,99096.05
2019-01-17T01:25:03.487Z,99104.69
2019-01-17T01:28:06.485Z,99086.06
2019-01-17T01:30:59.132Z,99086.53
2019-01-17T01:33:49.742Z,99095.56
2019-01-17T01:36:37.641Z,99097.73
2019-01-17T01:39:28.850Z,99101.19
2019-01-17T01:42:18.398Z,99093.41
2019-01-17T01:45:05.102Z,99088.22
2019-01-17T01:48:01.090Z,99085.63
2019-01-17T01:50:52.241Z,99089.56
2019-01-17T01:53:22.881Z,99080.92
2019-01-17T01:55:53.740Z,99083.99
2019-01-17T01:58:24.537Z,99093.88
2019-01-17T02:00:55.183Z,99086.55
2019-01-17T02:03:25.772Z,99077.08
2019-01-17T02:05:56.442Z,99075.34
2019-01-17T02:08:27.121Z,99084.41
2019-01-17T02:10:57.573Z,99083.98
2019-01-17T02:13:28.115Z,99092.59
2019-01-17T02:15:58.773Z,99083.52
2019-01-17T02:18:29.594Z,99082.17
2019-01-17T02:21:00.834Z,99092.06
2019-01-17T02:23:32.084Z,99081.66
2019-01-17T02:26:02.677Z,99072.19
2019-01-17T02:28:33.598Z,99076.89
2019-01-17T02:31:04.656Z,99074.35
2019-01-17T02:33:37.090Z,99073.44
2019-01-17T02:36:08.120Z,99076.08
2019-01-17T02:38:39.282Z,99088.05
2019-01-17T02:41:10.631Z,99083.29
2019-01-17T02:43:41.286Z,99076.34
2019-01-17T02:46:11.922Z,99072.06
2019-01-17T02:48:42.514Z,99072.06
2019-01-17T02:51:13.399Z,99082.43
2019-01-17T02:53:44.038Z,99080.31
2019-01-17T02:56:14.631Z,99074.64
2019-01-17T02:58:45.784Z,99078.93
2019-01-17T03:01:16.446Z,99077.63
2019-01-17T03:03:47.017Z,99081.52
2019-01-17T03:06:17.918Z,99079.40
2019-01-17T03:08:48.633Z,99078.92
2019-01-17T03:11:19.605Z,99081.91
2019-01-17T03:13:50.302Z,99081.91
2019-01-17T03:16:21.635Z,99085.75
2019-01-17T03:18:52.649Z,99079.75
2019-01-17T03:21:23.360Z,99090.52
2019-01-17T03:23:54.402Z,99086.66
2019-01-17T03:26:25.063Z,99086.66
2019-01-17T03:28:56.290Z,99086.66
2019-01-17T03:31:26.860Z,99086.27
2019-01-17T03:33:57.997Z,99091.89
2019-01-17T03:36:28.691Z,99093.23
2019-01-17T03:38:59.108Z,99090.69
2019-01-17T03:41:29.698Z,99082.87
2019-01-17T03:44:00.595Z,99085.45
2019-01-17T03:46:31.221Z,99090.69
2019-01-17T03:49:01.852Z,99081.18
2019-01-17T03:51:32.290Z,99082.43
2019-01-17T03:54:03.120Z,99082.95
2019-01-17T03:56:33.988Z,99076.91
2019-01-17T03:59:04.667Z,99086.41
2019-01-17T04:01:35.293Z,99088.56
2019-01-17T04:04:05.889Z,99101.14
2019-01-17T04:06:36.447Z,99096.77
2019-01-17T04:09:08.624Z,99090.77
2019-01-17T04:11:39.442Z,99089.81
2019-01-17T04:14:10.088Z,99092.45
2019-01-17T04:16:40.806Z,99099.38
2019-01-17T04:19:11.859Z,99103.70
2019-01-17T04:21:42.528Z,99105.51
2019-01-17T04:24:13.096Z,99108.84
2019-01-17T04:26:44.064Z,99109.70
2019-01-17T04:29:14.985Z,99111.05
2019-01-17T04:31:45.912Z,99110.18
2019-01-17T04:34:16.493Z,99103.78
2019-01-17T04:36:47.033Z,99108.02
2019-01-17T04:39:17.679Z,99114.11
2019-01-17T04:41:48.916Z,99121.41
2019-01-17T04:44:19.804Z,99118.30
2019-01-17T04:46:50.467Z,99126.95
2019-01-17T04:49:21.049Z,99121.45
2019-01-17T04:51:51.634Z,99122.63
2019-01-17T04:54:22.482Z,99133.00
2019-01-17T04:56:53.510Z,99129.66
2019-01-17T04:59:24.101Z,99135.23
2019-01-17T05:01:54.648Z,99142.98
2019-01-17T05:04:25.170Z,99150.77
2019-01-17T05:06:55.703Z,99147.70
2019-01-17T05:09:26.344Z,99151.28
2019-01-17T05:11:58.638Z,99146.09
2019-01-17T05:14:29.232Z,99145.22
2019-01-17T05:17:00.173Z,99144.44
2019-01-17T05:19:31.937Z,99149.97
2019-01-17T05:22:02.530Z,99159.45
2019-01-17T05:24:33.542Z,99159.02
2019-01-17T05:27:04.138Z,99159.13
2019-01-17T05:29:35.123Z,99148.72
2019-01-17T05:32:06.110Z,99147.07
2019-01-17T05:34:39.696Z,99141.02
2019-01-17T05:37:09.060Z,99141.85
2019-01-17T05:39:39.615Z,99146.64
2019-01-17T05:42:10.213Z,99149.74
2019-01-17T05:44:40.943Z,99143.77
2019-01-17T05:47:11.900Z,99151.55
2019-01-17T05:49:42.716Z,99148.59
2019-01-17T05:52:13.307Z,99147.19
2019-01-17T05:54:44.064Z,99147.62
2019-01-17T05:57:14.764Z,99153.67
2019-01-17T05:59:45.390Z,99155.86
2019-01-17T06:02:16.021Z,99169.62
2019-01-17T06:04:46.759Z,99180.09
2019-01-17T06:07:17.450Z,99174.91
2019-01-17T06:09:48.011Z,99173.94
2019-01-17T06:12:18.536Z,99173.14
2019-01-17T06:14:49.627Z,99176.17
2019-01-17T06:17:20.528Z,99171.84
2019-01-17T06:19:51.437Z,99162.81
2019-01-17T06:22:22.333Z,99165.44
2019-01-17T06:24:53.524Z,99169.72
2019-01-17T06:27:24.985Z,99163.67
2019-01-17T06:29:57.198Z,99163.67
2019-01-17T06:32:27.684Z,99162.02
2019-01-17T06:34:58.270Z,99150.39
2019-01-17T06:37:28.924Z,99163.78
2019-01-17T06:40:00.053Z,99171.59
2019-01-17T06:42:30.651Z,99176.78
2019-01-17T06:45:01.291Z,99184.98
2019-01-17T06:47:32.236Z,99185.05
2019-01-17T06:50:03.180Z,99183.81
2019-01-17T06:52:33.785Z,99180.36
2019-01-17T06:55:04.871Z,99180.33
2019-01-17T06:57:35.621Z,99190.30
2019-01-17T07:00:08.038Z,99183.81
2019-01-17T07:02:38.957Z,99188.59
2019-01-17T07:05:11.098Z,99188.16
2019-01-17T07:07:42.193Z,99189.00
2019-01-17T07:10:15.478Z,99195.91
2019-01-17T07:12:46.390Z,99184.71
2019-01-17T07:15:17.550Z,99191.55
2019-01-17T07:17:48.476Z,99191.16
2019-01-17T07:20:19.090Z,99196.77
2019-01-17T07:22:50.032Z,99190.69
2019-01-17T07:25:20.913Z,99201.95
2019-01-17T07:27:51.834Z,99205.38
2019-01-17T07:30:24.280Z,99216.14
2019-01-17T07:32:55.330Z,99211.36
2019-01-17T07:35:27.278Z,99211.33
2019-01-17T07:37:57.867Z,99209.20
2019-01-17T07:40:29.038Z,99204.48
2019-01-17T07:42:59.630Z,99213.55
2019-01-17T07:45:31.424Z,99213.09
2019-01-17T07:48:02.061Z,99210.50
2019-01-17T07:50:32.686Z,99216.48
2019-01-17T07:53:03.297Z,99203.13
2019-01-17T07:55:34.296Z,99214.81
2019-01-17T07:58:05.031Z,99223.48
2019-01-17T08:00:35.921Z,99220.86
2019-01-17T08:03:07.207Z,99220.03
2019-01-17T08:05:38.149Z,99223.91
2019-01-17T08:08:08.591Z,99228.23
2019-01-17T08:10:39.514Z,99228.66
2019-01-17T08:13:10.416Z,99235.11
2019-01-17T08:15:40.888Z,99242.02
2019-01-17T08:18:11.507Z,99240.27
2019-01-17T08:20:42.041Z,99240.20
2019-01-17T08:23:12.651Z,99250.14
2019-01-17T08:25:43.278Z,99246.25
2019-01-17T08:28:14.227Z,99236.75
2019-01-17T08:30:45.033Z,99247.55
2019-01-17T08:33:16.039Z,99244.92
2019-01-17T08:35:46.843Z,99241.00
2019-01-17T08:38:17.445Z,99243.99
2019-01-17T08:40:48.056Z,99257.85
2019-01-17T08:43:18.640Z,99241.84
2019-01-17T08:45:49.433Z,99249.61
2019-01-17T08:48:20.610Z,99259.52
2019-01-17T08:50:51.535Z,99244.83
2019-01-17T08:53:22.448Z,99249.17
2019-01-17T08:55:53.984Z,99245.63
2019-01-17T08:58:24.945Z,99248.28
2019-01-17T09:00:55.917Z,99249.58
2019-01-17T09:03:26.950Z,99263.44
2019-01-17T09:05:58.222Z,99254.00
2019-01-17T09:08:29.110Z,99260.01
2019-01-17T09:10:59.724Z,99253.53
2019-01-17T09:13:30.557Z,99258.72
2019-01-17T09:16:01.155Z,99256.80
2019-01-17T09:18:31.811Z,99247.86
2019-01-17T09:21:03.038Z,99254.16
2019-01-17T09:23:33.977Z,99249.89
2019-01-17T09:26:07.577Z,99252.31
2019-01-17T09:28:37.773Z,99247.75
2019-01-17T09:31:08.300Z,99253.30
2019-01-17T09:33:39.219Z,99251.99
2019-01-17T09:36:10.534Z,99251.29
2019-01-17T09:38:41.745Z,99249.20
2019-01-17T09:41:14.779Z,99247.67
2019-01-17T09:43:46.048Z,99244.44
2019-01-17T09:46:17.386Z,99250.92
2019-01-17T09:48:48.082Z,99243.04
2019-01-17T09:51:19.292Z,99247.56
2019-01-17T09:53:50.066Z,99239.28
2019-01-17T09:56:21.167Z,99239.25
2019-01-17T09:58:52.131Z,99239.37
2019-01-17T10:01:23.116Z,99231.56
2019-01-17T10:03:54.056Z,99239.63
2019-01-17T10:06:24.769Z,99237.58
2019-01-17T10:08:55.422Z,99229.55
2019-01-17T10:11:26.126Z,99227.86
2019-01-17T10:13:57.042Z,99227.41
2019-01-17T10:16:45.371Z,99233.52
2019-01-17T10:20:05.973Z,99218.48
2019-01-17T10:23:41.258Z,99222.08
2019-01-17T10:26:46.418Z,99222.06
2019-01-17T10:30:30.920Z,99209.86
2019-01-17T10:33:49.999Z,99216.73
2019-01-17T10:37:17.035Z,99207.75
2019-01-17T10:40:48.850Z,99201.91
2019-01-17T10:44:39.970Z,99206.08
2019-01-17T10:48:30.850Z,99204.41
2019-01-17T10:52:07.589Z,99200.30
2019-01-17T10:55:56.853Z,99195.53
2019-01-17T10:58:49.305Z,99187.21
2019-01-17T11:01:52.014Z,99186.67
2019-01-17T11:07:54.550Z,99193.23
2019-01-17T11:11:12.041Z,99173.62
2019-01-17T11:14:31.414Z,99175.06
2019-01-17T11:17:56.586Z,99169.01
2019-01-17T11:21:24.851Z,99171.84
2019-01-17T11:24:17.630Z,99161.88
2019-01-17T11:27:26.570Z,99174.77
2019-01-17T11:30:30.101Z,99167.34
2019-01-17T11:33:33.567Z,99162.28
2019-01-17T11:36:50.872Z,99158.83
2019-01-17T11:40:21.864Z,99151.28
2019-01-17T11:44:03.565Z,99149.02
2019-01-17T11:47:44.309Z,99146.73
2019-01-17T11:51:15.355Z,99146.19
2019-01-17T11:54:30.372Z,99143.16
2019-01-17T11:58:24.054Z,99142.56
2019-01-17T12:01:37.987Z,99138.38
2019-01-17T12:04:34.797Z,99138.00
2019-01-17T12:07:12.515Z,99145.19
2019-01-17T12:09:43.540Z,99131.01
2019-01-17T12:12:25.978Z,99129.70
2019-01-17T12:14:59.399Z,99131.27
2019-01-17T12:17:30.078Z,99111.26
2019-01-17T12:20:00.713Z,99112.69
2019-01-17T12:22:31.431Z,99125.55
2019-01-17T12:25:02.175Z,99124.16
2019-01-17T12:27:33.485Z,99104.01
2019-01-17T12:30:04.514Z,99111.69
2019-01-17T12:32:35.560Z,99107.58
2019-01-17T12:35:07.207Z,99113.67
2019-01-17T12:37:38.833Z,99112.06
2019-01-17T12:40:13.174Z,99102.60
2019-01-17T12:42:44.154Z,99094.08
2019-01-17T12:45:15.214Z,99102.95
2019-01-17T12:47:46.182Z,99100.14
2019-01-17T12:50:19.292Z,99095.53
2019-01-17T12:52:50.530Z,99090.23
2019-01-17T12:55:21.205Z,99091.25
2019-01-17T12:57:53.604Z,99084.47
2019-01-17T13:00:25.015Z,99081.41
2019-01-17T13:02:56.014Z,99072.73
2019-01-17T13:05:26.697Z,99079.55
2019-01-17T13:07:57.714Z,99080.90
2019-01-17T13:10:28.623Z,99076.27
2019-01-17T13:12:59.282Z,99071.16
2019-01-17T13:15:30.015Z,99066.55
2019-01-17T13:18:00.751Z,99066.55
2019-01-17T13:20:34.171Z,99059.86
2019-01-17T13:23:04.904Z,99060.09
2019-01-17T13:25:36.257Z,99058.90
2019-01-17T13:28:07.594Z,99049.93
2019-01-17T13:30:38.309Z,99048.71
2019-01-17T13:33:09.654Z,99039.92
2019-01-17T13:35:40.685Z,99043.07
2019-01-17T13:38:11.978Z,99037.91
2019-01-17T13:40:43.027Z,99046.35
2019-01-17T13:43:14.340Z,99035.71
2019-01-17T13:45:45.010Z,99034.15
2019-01-17T13:48:15.715Z,99037.31
2019-01-17T13:50:46.363Z,99035.56
2019-01-17T13:53:17.058Z,99025.23
2019-01-17T13:55:47.701Z,99034.34
2019-01-17T13:58:18.423Z,99038.47
2019-01-17T14:00:49.417Z,99036.56
2019-01-17T14:03:22.058Z,99040.64
2019-01-17T14:05:52.783Z,99047.51
2019-01-17T14:08:23.750Z,99050.91
2019-01-17T14:10:54.396Z,99049.17
2019-01-17T14:13:25.787Z,99048.52
2019-01-17T14:15:56.501Z,99050.08
2019-01-17T14:18:27.934Z,99053.36
2019-01-17T14:20:58.720Z,99056.28
2019-01-17T14:23:29.425Z,99067.50
2019-01-17T14:26:00.124Z,99065.28
2019-01-17T14:28:30.772Z,99066.30
2019-01-17T14:31:01.717Z,99069.70
2019-01-17T14:33:32.374Z,99078.58
2019-01-17T14:36:03.015Z,99085.84
2019-01-17T14:38:33.729Z,99086.91
2019-01-17T14:41:07.387Z,99084.93
2019-01-17T14:43:38.387Z,99086.88
2019-01-17T14:46:09.568Z,99085.50
2019-01-17T14:48:40.271Z,99092.55
2019-01-17T14:51:11.347Z,99102.95
2019-01-17T14:53:42.033Z,99110.69
2019-01-17T14:56:12.696Z,99102.92
2019-01-17T14:58:43.394Z,99094.83
2019-01-17T15:01:14.120Z,99080.40
2019-01-17T15:03:45.059Z,99080.47
2019-01-17T15:06:15.837Z,99077.05
2019-01-17T15:08:47.007Z,99079.20
2019-01-17T15:11:17.970Z,99092.31
2019-01-17T15:13:48.908Z,99096.69
2019-01-17T15:16:19.622Z,99092.00
2019-01-17T15:18:50.322Z,99087.59
2019-01-17T15:21:20.949Z,99093.95
2019-01-17T15:23:52.073Z,99098.56
2019-01-17T15:26:22.766Z,99092.25
2019-01-17T15:28:53.406Z,99091.69
2019-01-17T15:31:25.645Z,99095.64
2019-01-17T15:33:56.310Z,99097.36
2019-01-17T15:36:26.938Z,99096.13
2019-01-17T15:38:58.043Z,99094.47
2019-01-17T15:41:29.605Z,99100.97
2019-01-17T15:44:00.347Z,99110.03
2019-01-17T15:46:31.059Z,99106.61
2019-01-17T15:49:01.705Z,99115.16
2019-01-17T15:51:32.452Z,99108.39
2019-01-17T15:54:03.145Z,99118.72
2019-01-17T15:56:34.179Z,99127.27
2019-01-17T15:59:04.815Z,99128.03
2019-01-17T16:01:35.637Z,99135.38
2019-01-17T16:04:06.920Z,99140.43
2019-01-17T16:06:39.843Z,99151.19
2019-01-17T16:09:11.159Z,99148.69
2019-01-17T16:11:42.289Z,99154.70
2019-01-17T16:14:13.721Z,99160.34
2019-01-17T16:16:48.257Z,99163.30
2019-01-17T16:19:18.001Z,99168.11
2019-01-17T16:21:49.334Z,99167.66
2019-01-17T16:24:20.898Z,99180.17
2019-01-17T16:26:54.402Z,99187.08
2019-01-17T16:29:25.498Z,99185.44
2019-01-17T16:31:56.780Z,99192.77
2019-01-17T16:34:28.735Z,99193.17
2019-01-17T16:36:59.401Z,99194.91
2019-01-17T16:39:30.639Z,99199.65
2019-01-17T16:42:01.727Z,99202.27
2019-01-17T16:44:34.223Z,99205.74
2019-01-17T16:47:04.934Z,99212.67
2019-01-17T16:49:35.602Z,99211.81
2019-01-17T16:52:06.604Z,99218.74
2019-01-17T16:54:37.649Z,99222.14
2019-01-17T16:57:08.644Z,99224.75
2019-01-17T16:59:39.960Z,99236.38
2019-01-17T17:02:11.795Z,99233.33
2019-01-17T17:04:43.626Z,99244.15
2019-01-17T17:07:16.997Z,99241.61
2019-01-17T17:09:48.110Z,99240.28
2019-01-17T17:12:19.086Z,99249.83
2019-01-17T17:14:50.089Z,99255.44
2019-01-17T17:17:21.182Z,99252.42
2019-01-17T17:19:52.243Z,99251.58
2019-01-17T17:22:23.555Z,99257.11
2019-01-17T17:24:55.242Z,99267.09
2019-01-17T17:27:27.259Z,99263.22
2019-01-17T17:29:58.211Z,99272.31
2019-01-17T17:32:29.535Z,99280.46
2019-01-17T17:35:00.504Z,99281.78
2019-01-17T17:37:32.028Z,99291.33
2019-01-17T17:40:03.468Z,99297.34
2019-01-17T17:42:34.814Z,99303.41
2019-01-17T17:45:06.560Z,99297.89
2019-01-17T17:47:37.646Z,99303.03
2019-01-17T17:50:10.645Z,99309.50
2019-01-17T17:52:41.684Z,99314.28
2019-01-17T17:55:14.522Z,99322.02
2019-01-17T17:57:46.218Z,99319.89
2019-01-17T18:00:44.231Z,99328.93
2019-01-17T18:03:15.727Z,99330.30
2019-01-17T18:05:46.730Z,99333.34
2019-01-17T18:08:18.558Z,99338.51
2019-01-17T18:10:49.508Z,99346.25
2019-01-17T18:13:20.619Z,99351.47
2019-01-17T18:15:51.804Z,99355.75
2019-01-17T18:18:23.261Z,99358.34
2019-01-17T18:20:55.533Z,99352.77
2019-01-17T18:23:27.465Z,99363.95
2019-01-17T18:26:00.078Z,99363.10
2019-01-17T18:28:31.600Z,99368.28
2019-01-17T18:31:03.063Z,99379.47
2019-01-17T18:33:34.703Z,99379.49
2019-01-17T18:36:05.750Z,99381.20
2019-01-17T18:38:36.853Z,99398.87
2019-01-17T18:41:07.958Z,99394.14
2019-01-17T18:43:39.063Z,99395.41
2019-01-17T18:46:09.893Z,99397.59
2019-01-17T18:48:40.535Z,99403.61
2019-01-17T18:51:11.510Z,99402.77
2019-01-17T18:53:42.216Z,99409.22
2019-01-17T18:56:13.693Z,99418.70
2019-01-17T18:58:45.181Z,99422.59
2019-01-17T19:01:16.804Z,99419.58
2019-01-17T19:03:47.878Z,99423.89
2019-01-17T19:06:22.083Z,99422.17
2019-01-17T19:08:53.254Z,99434.69
2019-01-17T19:11:24.271Z,99442.88
2019-01-17T19:13:56.400Z,99442.88
2019-01-17T19:16:27.485Z,99451.06
2019-01-17T19:18:58.544Z,99456.66
2019-01-17T19:21:29.679Z,99457.52
2019-01-17T19:24:03.741Z,99462.27
2019-01-17T19:26:34.374Z,99463.56
2019-01-17T19:29:05.128Z,99473.48
2019-01-17T19:31:37.898Z,99473.48
2019-01-17T19:34:08.937Z,99482.96
2019-01-17T19:36:40.390Z,99481.24
2019-01-17T19:39:13.050Z,99488.12
2019-01-17T19:41:44.645Z,99495.47
2019-01-17T19:44:16.494Z,99498.48
2019-01-17T19:46:47.635Z,99503.22
2019-01-17T19:49:18.765Z,99507.09
2019-01-17T19:51:49.885Z,99519.14
2019-01-17T19:54:20.949Z,99516.57
2019-01-17T19:56:51.684Z,99520.87
2019-01-17T19:59:22.316Z,99520.00
2019-01-17T20:01:53.357Z,99526.89
2019-01-17T20:04:25.183Z,99531.62
2019-01-17T20:06:56.049Z,99537.23
2019-01-17T20:09:26.792Z,99542.39
2019-01-17T20:11:57.572Z,99547.57
2019-01-17T20:14:28.619Z,99547.12
2019-01-17T20:16:59.835Z,99549.27
2019-01-17T20:19:30.867Z,99555.30
2019-01-17T20:22:01.923Z,99567.80
2019-01-17T20:24:32.934Z,99556.58
2019-01-17T20:27:04.055Z,99567.36
2019-01-17T20:29:35.055Z,99556.13
2019-01-17T20:32:06.227Z,99559.58
2019-01-17T20:34:37.032Z,99566.91
2019-01-17T20:37:08.213Z,99570.34
2019-01-17T20:39:39.421Z,99569.48
2019-01-17T20:42:11.592Z,99582.41
2019-01-17T20:44:42.472Z,99581.06
2019-01-17T20:47:14.953Z,99585.38
2019-01-17T20:49:46.067Z,99599.13
2019-01-17T20:52:16.733Z,99592.27
2019-01-17T20:54:47.947Z,99597.41
2019-01-17T20:57:18.808Z,99597.80
2019-01-17T20:59:50.014Z,99598.64
2019-01-17T21:02:22.197Z,99592.62
2019-01-17T21:04:54.162Z,99605.95
2019-01-17T21:07:25.110Z,99599.52
2019-01-17T21:10:01.000Z,99610.23
2019-01-17T21:12:37.806Z,99617.14
2019-01-17T21:15:09.272Z,99627.93
2019-01-17T21:17:42.320Z,99631.80
2019-01-17T21:20:15.951Z,99639.92
2019-01-17T21:22:46.688Z,99636.95
2019-01-17T21:25:18.569Z,99636.91
2019-01-17T21:27:49.757Z,99637.77
2019-01-17T21:30:23.610Z,99631.31
2019-01-17T21:32:54.678Z,99648.03
2019-01-17T21:35:27.167Z,99650.67
2019-01-17T21:37:58.315Z,99654.97
2019-01-17T21:40:32.131Z,99654.98
2019-01-17T21:43:02.923Z,99656.70
2019-01-17T21:45:34.383Z,99668.28
2019-01-17T21:48:05.307Z,99678.16
2019-01-17T21:50:36.210Z,99692.34
2019-01-17T21:53:07.375Z,99699.20
2019-01-17T21:55:42.443Z,99709.11
2019-01-17T21:58:23.980Z,99710.78
2019-01-17T22:01:03.727Z,99710.38
2019-01-17T22:03:35.391Z,99714.66
2019-01-17T22:06:07.446Z,99720.69
2019-01-17T22:08:38.298Z,99729.23
2019-01-17T22:11:09.184Z,99737.39
2019-01-17T22:13:39.901Z,99739.55
2019-01-17T22:16:10.557Z,99749.05
2019-01-17T22:18:41.357Z,99751.64
2019-01-17T22:21:12.079Z,99752.54
2019-01-17T22:23:43.039Z,99758.99
2019-01-17T22:26:20.902Z,99754.64
2019-01-17T22:28:47.547Z,99753.77
2019-01-17T22:31:18.205Z,99767.58
2019-01-17T22:33:49.424Z,99765.86
2019-01-17T22:36:20.753Z,99772.27
2019-01-17T22:38:51.954Z,99783.02
2019-01-17T22:41:23.165Z,99770.08
2019-01-17T22:43:56.128Z,99789.89
2019-01-17T22:46:28.819Z,99784.34
2019-01-17T22:48:59.875Z,99789.02
2019-01-17T22:51:30.825Z,99796.80
2019-01-17T22:54:02.031Z,99799.34
2019-01-17T22:56:32.996Z,99811.44
2019-01-17T22:59:09.261Z,99810.99
2019-01-17T23:01:36.367Z,99812.34
2019-01-17T23:04:08.185Z,99817.84
2019-01-17T23:06:39.135Z,99826.05
2019-01-17T23:09:10.305Z,99826.05
2019-01-17T23:11:41.057Z,99831.22
2019-01-17T23:14:11.699Z,99838.04
2019-01-17T23:16:42.340Z,99840.67
2019-01-17T23:19:15.156Z,99832.95
2019-01-17T23:21:45.878Z,99848.42
2019-01-17T23:24:17.116Z,99851.00
2019-01-17T23:26:48.373Z,99861.75
2019-01-17T23:29:19.305Z,99863.43
2019-01-17T23:31:52.346Z,99878.53
2019-01-17T23:34:23.161Z,99869.91
2019-01-17T23:36:54.140Z,99885.41
2019-01-17T23:39:24.789Z,99884.56
2019-01-17T23:41:56.067Z,99883.66
2019-01-17T23:44:26.716Z,99890.53
2019-01-17T23:46:57.339Z,99897.02
2019-01-17T23:49:28.137Z,99897.44
2019-01-17T23:51:59.020Z,99903.92
2019-01-17T23:54:29.944Z,99910.41
2019-01-17T23:57:00.875Z,99915.99
2019-01-17T23:59:32.435Z,99920.19
